Time;durP1;ratioP1;P1;durP2;ratioP2;P2;SDS_P1;SDS_P2;PMS_P1;PMS_P2;Temp;Humidity;BMP_temperature;BMP_pressure;BME280_temperature;BME280_humidity;BME280_pressure;Samples;Min_cycle;Max_cycle;Signal;HPM_P1;HPM_P2
2023/03/19 00:01:48;;;;;;;;;;;;;;;14.45;40.79;100490.19;4937360;28;106639;-64
2023/03/19 00:04:15;;;;;;;;;;;;;;;14.43;40.75;100484.25;4952356;28;127914;-62
2023/03/19 00:06:41;;;;;;;;;;;;;;;14.41;40.85;100491.88;4958544;28;98031;-62
2023/03/19 00:09:06;;;;;;;;;;;;;;;14.39;40.43;100488.66;4956797;28;128229;-62
2023/03/19 00:11:33;;;;;;;;;;;;;;;14.37;40.80;100490.84;4955787;28;119357;-62
2023/03/19 00:13:59;;;;;;;;;;;;;;;14.36;40.41;100491.94;4941603;28;97987;-62
2023/03/19 00:16:25;;;;;;;;;;;;;;;14.34;40.67;100491.41;4956006;28;111940;-65
2023/03/19 00:18:50;;;;;;;;;;;;;;;14.33;40.76;100494.44;4935502;28;99479;-65
2023/03/19 00:21:16;;;;;;;;;;;;;;;14.30;40.52;100495.00;4941350;28;127200;-65
2023/03/19 00:23:42;;;;;;;;;;;;;;;14.27;40.51;100490.19;4951188;28;128025;-63
2023/03/19 00:26:08;;;;;;;;;;;;;;;14.25;40.84;100501.31;4938387;28;121931;-65
2023/03/19 00:28:36;;;;;;;;;;;;;;;14.23;40.50;100498.09;4923912;28;110734;-65
2023/03/19 00:31:12;;;;;;;;;;;;;;;14.22;40.45;100496.47;4953428;28;98340;-66
2023/03/19 00:33:38;;;;;;;;;;;;;;;14.19;40.60;100495.16;4954609;28;118862;-62
2023/03/19 00:36:05;;;;;;;;;;;;;;;14.18;40.79;100493.53;4953611;28;98151;-62
2023/03/19 00:38:33;;;;;;;;;;;;;;;14.14;40.44;100489.78;4955198;28;99091;-64
2023/03/19 00:40:59;;;;;;;;;;;;;;;14.14;40.86;100499.81;4951768;28;98153;-62
2023/03/19 00:43:25;;;;;;;;;;;;;;;14.12;40.85;100502.84;4951570;28;100064;-64
2023/03/19 00:45:51;;;;;;;;;;;;;;;14.10;40.42;100504.22;4955988;28;98114;-64
2023/03/19 00:48:17;;;;;;;;;;;;;;;14.07;40.54;100500.19;4954536;28;120982;-62
2023/03/19 00:50:43;;;;;;;;;;;;;;;14.06;40.56;100501.25;4954972;28;128443;-64
2023/03/19 00:53:09;;;;;;;;;;;;;;;14.05;40.72;100499.66;4955438;28;105381;-65
2023/03/19 00:55:35;;;;;;;;;;;;;;;14.02;40.56;100492.09;4957052;28;122420;-65
2023/03/19 00:58:01;;;;;;;;;;;;;;;14.01;40.80;100495.91;4952464;28;127544;-63
2023/03/19 01:00:27;;;;;;;;;;;;;;;14.00;40.59;100503.25;4952591;28;116947;-62
2023/03/19 01:02:53;;;;;;;;;;;;;;;13.99;40.82;100495.41;4953194;28;98555;-62
2023/03/19 01:05:19;;;;;;;;;;;;;;;13.98;40.58;100496.50;4952170;28;123262;-65
2023/03/19 01:07:45;;;;;;;;;;;;;;;13.95;40.42;100499.75;4951654;28;128193;-64
2023/03/19 01:10:11;;;;;;;;;;;;;;;13.94;40.58;100496.25;4951783;28;98909;-64
2023/03/19 01:12:37;;;;;;;;;;;;;;;13.92;40.74;100493.03;4952014;28;98149;-62
2023/03/19 01:15:03;;;;;;;;;;;;;;;13.91;40.57;100496.03;4950548;28;121556;-62
2023/03/19 01:17:29;;;;;;;;;;;;;;;13.90;40.38;100495.22;4952527;28;98964;-62
2023/03/19 01:19:55;;;;;;;;;;;;;;;13.86;40.91;100494.19;4953657;28;101018;-64
2023/03/19 01:22:21;;;;;;;;;;;;;;;13.86;40.47;100499.59;4954004;28;98575;-65
2023/03/19 01:24:47;;;;;;;;;;;;;;;13.86;40.53;100504.22;4956249;28;121132;-64
2023/03/19 01:27:13;;;;;;;;;;;;;;;13.84;40.83;100504.50;4938181;28;126995;-64
2023/03/19 01:29:39;;;;;;;;;;;;;;;13.83;40.45;100504.78;4934432;28;127585;-62
2023/03/19 01:32:06;;;;;;;;;;;;;;;13.82;40.84;100495.06;4952768;28;128548;-62
2023/03/19 01:34:32;;;;;;;;;;;;;;;13.80;40.51;100505.38;4956842;28;98136;-62
2023/03/19 01:36:58;;;;;;;;;;;;;;;13.79;40.75;100501.03;4954249;28;126261;-62
2023/03/19 01:39:25;;;;;;;;;;;;;;;13.78;40.49;100502.13;4950212;28;126997;-62
2023/03/19 01:41:53;;;;;;;;;;;;;;;13.74;40.58;100496.50;4952130;28;97953;-65
2023/03/19 01:44:27;;;;;;;;;;;;;;;13.74;40.46;100502.72;4950284;28;121464;-65
2023/03/19 01:46:53;;;;;;;;;;;;;;;13.72;40.81;100502.19;4919841;28;98609;-65
2023/03/19 01:49:19;;;;;;;;;;;;;;;13.70;40.85;100496.25;4940090;28;97906;-62
2023/03/19 01:51:45;;;;;;;;;;;;;;;13.71;40.76;100497.84;4937871;28;98371;-65
2023/03/19 01:54:13;;;;;;;;;;;;;;;13.70;40.72;100498.16;4949887;28;108569;-64
2023/03/19 01:56:39;;;;;;;;;;;;;;;13.70;40.33;100493.53;4936543;28;98715;-62
2023/03/19 01:59:22;;;;;;;;;;;;;;;13.68;40.40;100495.75;4938588;28;127045;-62
2023/03/19 02:02:00;;;;;;;;;;;;;;;13.68;40.79;100492.22;4935966;28;98165;-62
2023/03/19 02:04:26;;;;;;;;;;;;;;;13.67;40.59;100490.59;4948711;28;120264;-64
2023/03/19 02:06:54;;;;;;;;;;;;;;;13.65;40.76;100488.19;4951419;28;99003;-62
2023/03/19 02:09:20;;;;;;;;;;;;;;;13.64;40.60;100481.16;4940525;28;98568;-65
2023/03/19 02:11:46;;;;;;;;;;;;;;;13.63;40.57;100479.53;4946769;28;111503;-65
2023/03/19 02:14:12;;;;;;;;;;;;;;;13.62;40.61;100477.91;4934156;28;122711;-62
2023/03/19 02:16:38;;;;;;;;;;;;;;;13.61;40.67;100476.31;4953337;28;109385;-62
2023/03/19 02:19:05;;;;;;;;;;;;;;;13.61;40.59;100476.31;4951120;28;122949;-62
2023/03/19 02:21:31;;;;;;;;;;;;;;;13.59;40.49;100469.56;4932892;28;98290;-65
2023/03/19 02:24:11;;;;;;;;;;;;;;;13.59;40.85;100472.28;4933296;28;122423;-62
2023/03/19 02:26:37;;;;;;;;;;;;;;;13.58;40.72;100468.75;4937186;28;127628;-62
2023/03/19 02:29:03;;;;;;;;;;;;;;;13.58;40.69;100474.16;4949586;28;128250;-63
2023/03/19 02:31:29;;;;;;;;;;;;;;;13.58;40.53;100468.75;4954912;28;127537;-64
2023/03/19 02:34:18;;;;;;;;;;;;;;;13.58;40.48;100462.53;4954704;28;117377;-62
2023/03/19 02:36:50;;;;;;;;;;;;;;;13.58;40.85;100467.97;4943154;28;102904;-66
2023/03/19 02:39:25;;;;;;;;;;;;;;;13.57;40.47;100475.28;4951846;28;110604;-62
2023/03/19 02:41:51;;;;;;;;;;;;;;;13.56;40.48;100476.38;4933774;28;98167;-66
2023/03/19 02:44:18;;;;;;;;;;;;;;;13.57;40.46;100482.59;4934445;28;122223;-62
2023/03/19 02:46:45;;;;;;;;;;;;;;;13.58;40.56;100478.78;4952970;28;99374;-62
2023/03/19 02:49:11;;;;;;;;;;;;;;;13.57;40.56;100483.41;4953808;28;98301;-62
2023/03/19 02:51:36;;;;;;;;;;;;;;;13.56;40.73;100484.50;4952724;28;121438;-62
2023/03/19 02:54:03;;;;;;;;;;;;;;;13.56;40.43;100489.09;4951104;28;122534;-63
2023/03/19 02:56:29;;;;;;;;;;;;;;;13.56;40.49;100476.38;4953207;28;123641;-65
2023/03/19 02:58:55;;;;;;;;;;;;;;;13.55;40.59;100485.56;4948459;28;120625;-66
2023/03/19 03:01:20;;;;;;;;;;;;;;;13.57;40.48;100479.88;4952252;28;122757;-65
2023/03/19 03:03:46;;;;;;;;;;;;;;;13.55;40.47;100474.75;4951560;28;121668;-62
2023/03/19 03:06:13;;;;;;;;;;;;;;;13.57;40.57;100474.47;4951819;28;128922;-62
2023/03/19 03:08:39;;;;;;;;;;;;;;;13.57;40.73;100479.88;4951393;28;98577;-62
2023/03/19 03:11:05;;;;;;;;;;;;;;;13.56;40.51;100484.50;4937762;28;98364;-63
2023/03/19 03:13:31;;;;;;;;;;;;;;;13.55;40.42;100491.00;4949961;28;120839;-66
2023/03/19 03:15:57;;;;;;;;;;;;;;;13.57;40.55;100490.72;4948646;28;98236;-62
2023/03/19 03:18:23;;;;;;;;;;;;;;;13.57;40.75;100488.00;4951035;28;98418;-64
2023/03/19 03:20:49;;;;;;;;;;;;;;;13.57;40.60;100491.53;4951991;28;127079;-64
2023/03/19 03:23:15;;;;;;;;;;;;;;;13.57;40.56;100518.59;4934285;28;121849;-67
2023/03/19 03:25:41;;;;;;;;;;;;;;;13.57;40.47;100512.38;4905885;28;100862;-63
2023/03/19 03:28:07;;;;;;;;;;;;;;;13.57;40.85;100494.22;4950595;28;127336;-62
2023/03/19 03:30:33;;;;;;;;;;;;;;;13.56;40.42;100491.78;4952352;28;121701;-63
2023/03/19 03:32:59;;;;;;;;;;;;;;;13.55;40.93;100501.81;4951765;28;122552;-65
2023/03/19 03:35:26;;;;;;;;;;;;;;;13.55;40.34;100498.31;4952249;28;100777;-63
2023/03/19 03:37:51;;;;;;;;;;;;;;;13.54;40.71;100491.28;4918401;28;100085;-63
2023/03/19 03:40:17;;;;;;;;;;;;;;;13.53;40.81;100503.22;4935534;28;128148;-66
2023/03/19 03:42:43;;;;;;;;;;;;;;;13.53;40.72;100500.50;4950478;28;118097;-63
2023/03/19 03:45:11;;;;;;;;;;;;;;;13.51;40.68;100498.06;4948138;28;98226;-63
2023/03/19 03:47:36;;;;;;;;;;;;;;;13.51;40.50;100503.50;4950136;28;98375;-63
2023/03/19 03:50:04;;;;;;;;;;;;;;;13.49;40.80;100495.66;4941652;28;127989;-62
2023/03/19 03:52:32;;;;;;;;;;;;;;;13.49;40.67;100497.56;4935100;28;99763;-63
2023/03/19 03:54:58;;;;;;;;;;;;;;;13.48;40.55;100504.88;4925445;28;99405;-65
2023/03/19 03:57:25;;;;;;;;;;;;;;;13.48;40.56;100509.50;4948325;28;122051;-63
2023/03/19 03:59:50;;;;;;;;;;;;;;;13.47;40.91;100521.41;4951995;28;98065;-66
2023/03/19 04:02:16;;;;;;;;;;;;;;;13.46;40.90;100517.88;4947931;28;122447;-66
2023/03/19 04:04:42;;;;;;;;;;;;;;;13.44;40.39;100514.69;4950740;28;128141;-65
2023/03/19 04:07:08;;;;;;;;;;;;;;;13.43;40.84;100512.22;4952703;28;99257;-63
2023/03/19 04:09:34;;;;;;;;;;;;;;;13.42;40.64;100506.00;4949299;28;119038;-63
2023/03/19 04:12:01;;;;;;;;;;;;;;;13.42;41.00;100507.91;4949487;28;97998;-65
2023/03/19 04:14:27;;;;;;;;;;;;;;;13.40;40.88;100510.09;4949795;28;98321;-63
2023/03/19 04:16:53;;;;;;;;;;;;;;;13.40;40.63;100512.78;4950385;28;128842;-62
2023/03/19 04:19:19;;;;;;;;;;;;;;;13.38;40.49;100501.47;4950649;28;126914;-66
2023/03/19 04:21:45;;;;;;;;;;;;;;;13.37;40.83;100500.66;4952570;28;97877;-63
2023/03/19 04:24:11;;;;;;;;;;;;;;;13.37;40.59;100497.16;4931459;28;98664;-65
2023/03/19 04:26:37;;;;;;;;;;;;;;;13.36;40.97;100500.91;4904620;28;100279;-65
2023/03/19 04:29:03;;;;;;;;;;;;;;;13.35;40.81;100497.41;4949934;28;126275;-63
2023/03/19 04:31:29;;;;;;;;;;;;;;;13.34;40.75;100489.59;4951908;28;118145;-66
2023/03/19 04:33:56;;;;;;;;;;;;;;;13.33;40.85;100486.06;4952322;28;98060;-63
2023/03/19 04:36:22;;;;;;;;;;;;;;;13.33;40.55;100490.69;4956903;28;98758;-62
2023/03/19 04:38:48;;;;;;;;;;;;;;;13.32;40.80;100489.84;4953175;28;98891;-65
2023/03/19 04:41:17;;;;;;;;;;;;;;;13.29;40.70;100489.63;4930690;28;121324;-66
2023/03/19 04:43:42;;;;;;;;;;;;;;;13.28;40.94;100502.34;4931548;28;99133;-66
2023/03/19 04:46:09;;;;;;;;;;;;;;;13.29;40.79;100497.75;4951922;28;101754;-63
2023/03/19 04:48:34;;;;;;;;;;;;;;;13.29;40.75;100500.47;4955968;28;98545;-63
2023/03/19 04:51:03;;;;;;;;;;;;;;;13.27;40.64;100506.16;4948980;28;122501;-63
2023/03/19 04:53:29;;;;;;;;;;;;;;;13.26;40.77;100505.34;4936504;28;112773;-62
2023/03/19 04:55:55;;;;;;;;;;;;;;;13.24;40.45;100491.31;4950938;28;128960;-66
2023/03/19 04:58:22;;;;;;;;;;;;;;;13.25;40.35;100497.53;4955391;28;98037;-64
2023/03/19 05:00:48;;;;;;;;;;;;;;;13.23;40.76;100489.66;4949280;28;97754;-65
2023/03/19 05:03:14;;;;;;;;;;;;;;;13.22;40.71;100488.03;4952906;28;116846;-65
2023/03/19 05:05:40;;;;;;;;;;;;;;;13.21;40.62;100488.31;4952986;28;98714;-66
2023/03/19 05:08:07;;;;;;;;;;;;;;;13.19;40.85;100488.59;4954262;28;98137;-66
2023/03/19 05:10:34;;;;;;;;;;;;;;;13.18;40.82;100491.59;4949622;28;98085;-63
2023/03/19 05:13:00;;;;;;;;;;;;;;;13.17;40.62;100490.78;4950350;28;122572;-63
2023/03/19 05:15:26;;;;;;;;;;;;;;;13.17;40.75;100495.41;4955970;28;128080;-66
2023/03/19 05:17:52;;;;;;;;;;;;;;;13.15;40.81;100484.84;4951039;28;127475;-66
2023/03/19 05:20:18;;;;;;;;;;;;;;;13.14;40.91;100494.06;4955718;28;98036;-66
2023/03/19 05:22:45;;;;;;;;;;;;;;;13.14;40.98;100488.63;4954161;28;98414;-65
2023/03/19 05:25:11;;;;;;;;;;;;;;;13.13;40.81;100497.84;4952496;28;98328;-62
2023/03/19 05:27:37;;;;;;;;;;;;;;;13.14;40.83;100504.88;4949589;28;123153;-65
2023/03/19 05:30:04;;;;;;;;;;;;;;;13.15;40.81;100500.28;4928843;28;121903;-66
2023/03/19 05:32:30;;;;;;;;;;;;;;;13.17;40.50;100498.91;4933584;28;99716;-65
2023/03/19 05:34:57;;;;;;;;;;;;;;;13.21;40.79;100499.94;4955448;28;98343;-63
2023/03/19 05:37:23;;;;;;;;;;;;;;;13.26;40.72;100508.06;4952002;27;97945;-65
2023/03/19 05:39:50;;;;;;;;;;;;;;;13.31;40.84;100499.06;4948373;28;122987;-65
2023/03/19 05:42:15;;;;;;;;;;;;;;;13.37;40.58;100505.25;4953600;28;127298;-62
2023/03/19 05:44:41;;;;;;;;;;;;;;;13.43;40.46;100504.91;4953174;28;127366;-64
2023/03/19 05:47:09;;;;;;;;;;;;;;;13.49;40.67;100503.78;4945621;28;98188;-66
2023/03/19 05:49:35;;;;;;;;;;;;;;;13.56;40.71;100508.03;4929372;28;104142;-66
2023/03/19 05:52:01;;;;;;;;;;;;;;;13.61;40.41;100511.53;4932354;28;99467;-67
2023/03/19 05:54:27;;;;;;;;;;;;;;;13.65;40.58;100517.19;4947455;28;127566;-63
2023/03/19 05:56:53;;;;;;;;;;;;;;;13.70;40.65;100519.81;4946404;28;124722;-65
2023/03/19 05:59:18;;;;;;;;;;;;;;;13.74;40.52;100513.53;4944351;28;122664;-66
2023/03/19 06:01:44;;;;;;;;;;;;;;;13.80;40.22;100524.34;4945223;28;128841;-65
2023/03/19 06:04:10;;;;;;;;;;;;;;;13.85;40.19;100538.63;4946190;28;127409;-63
2023/03/19 06:06:36;;;;;;;;;;;;;;;13.90;40.33;100526.94;4948822;28;127913;-65
2023/03/19 06:09:02;;;;;;;;;;;;;;;13.94;40.14;100528.78;4913733;28;121101;-65
2023/03/19 06:11:28;;;;;;;;;;;;;;;13.98;40.23;100532.53;4948107;28;124192;-63
2023/03/19 06:13:54;;;;;;;;;;;;;;;14.03;40.33;100536.25;4943688;28;128123;-66
2023/03/19 06:16:20;;;;;;;;;;;;;;;14.07;40.03;100538.13;4946473;28;97896;-66
2023/03/19 06:18:46;;;;;;;;;;;;;;;14.14;40.35;100545.91;4927832;28;98106;-67
2023/03/19 06:21:12;;;;;;;;;;;;;;;14.20;40.14;100536.63;4943917;28;127326;-63
2023/03/19 06:23:38;;;;;;;;;;;;;;;14.27;40.01;100534.38;4933339;28;112551;-66
2023/03/19 06:26:05;;;;;;;;;;;;;;;14.34;40.26;100534.81;4952399;28;127930;-63
2023/03/19 06:28:31;;;;;;;;;;;;;;;14.39;40.39;100532.03;4947364;28;118548;-63
2023/03/19 06:30:57;;;;;;;;;;;;;;;14.44;40.08;100529.25;4920404;28;98402;-65
2023/03/19 06:33:26;;;;;;;;;;;;;;;14.52;40.23;100527.84;4948387;28;128279;-63
2023/03/19 06:35:52;;;;;;;;;;;;;;;14.56;40.10;100525.34;4949155;28;97823;-63
2023/03/19 06:38:18;;;;;;;;;;;;;;;14.58;40.34;100525.84;4948978;28;97917;-63
2023/03/19 06:40:44;;;;;;;;;;;;;;;14.61;40.19;100528.78;4947305;28;126718;-66
2023/03/19 06:43:10;;;;;;;;;;;;;;;14.66;40.35;100531.44;4928060;28;127376;-63
2023/03/19 06:45:36;;;;;;;;;;;;;;;14.66;40.30;100531.44;4949324;28;99290;-63
2023/03/19 06:48:02;;;;;;;;;;;;;;;14.69;40.28;100535.47;4948923;28;122395;-63
2023/03/19 06:50:28;;;;;;;;;;;;;;;14.71;40.11;100542.22;4947118;28;120807;-66
2023/03/19 06:52:54;;;;;;;;;;;;;;;14.76;39.96;100543.25;4951426;28;119025;-63
2023/03/19 06:55:20;;;;;;;;;;;;;;;14.81;40.10;100541.25;4950808;28;98092;-66
2023/03/19 06:57:49;;;;;;;;;;;;;;;14.90;40.09;100546.84;4944068;28;98028;-65
2023/03/19 07:00:17;;;;;;;;;;;;;;;15.00;39.85;100546.69;4947696;28;98858;-65
2023/03/19 07:02:43;;;;;;;;;;;;;;;15.15;39.83;100551.06;4948477;28;100159;-63
2023/03/19 07:05:09;;;;;;;;;;;;;;;15.27;39.69;100545.19;4947908;28;99742;-63
2023/03/19 07:07:35;;;;;;;;;;;;;;;15.37;39.45;100553.97;4946058;28;121624;-66
2023/03/19 07:10:01;;;;;;;;;;;;;;;15.54;39.60;100558.84;4950914;28;128135;-66
2023/03/19 07:12:27;;;;;;;;;;;;;;;15.76;39.51;100558.22;4948380;28;121181;-63
2023/03/19 07:14:54;;;;;;;;;;;;;;;15.92;39.57;100558.75;4948902;28;128402;-63
2023/03/19 07:17:21;;;;;;;;;;;;;;;16.02;39.55;100553.09;4949390;28;98346;-66
2023/03/19 07:19:47;;;;;;;;;;;;;;;16.08;39.64;100559.28;4947563;28;98779;-63
2023/03/19 07:22:13;;;;;;;;;;;;;;;16.19;39.55;100555.22;4947473;28;128701;-66
2023/03/19 07:24:39;;;;;;;;;;;;;;;16.38;39.51;100561.34;4946414;28;127910;-63
2023/03/19 07:27:05;;;;;;;;;;;;;;;16.73;39.47;100560.91;4943489;28;121588;-63
2023/03/19 07:29:31;;;;;;;;;;;;;;;16.93;39.09;100561.28;4929128;28;99253;-66
2023/03/19 07:31:57;;;;;;;;;;;;;;;17.06;39.17;100562.38;4930841;28;122642;-64
2023/03/19 07:34:23;;;;;;;;;;;;;;;17.18;39.00;100562.63;4896629;28;126056;-65
2023/03/19 07:36:50;;;;;;;;;;;;;;;17.33;39.16;100563.34;4913728;28;98440;-66
2023/03/19 07:39:15;;;;;;;;;;;;;;;17.60;38.92;100565.91;4914754;28;100304;-66
2023/03/19 07:41:43;;;;;;;;;;;;;;;17.70;39.14;100577.69;4923226;28;128441;-65
2023/03/19 07:44:10;;;;;;;;;;;;;;;18.01;38.65;100575.00;4925891;28;98746;-64
2023/03/19 07:46:36;;;;;;;;;;;;;;;18.13;38.83;100570.56;4930767;28;99171;-66
2023/03/19 07:49:01;;;;;;;;;;;;;;;18.30;38.89;100577.97;4891481;28;129635;-66
2023/03/19 07:51:27;;;;;;;;;;;;;;;18.47;38.74;100570.97;4930506;28;127817;-63
2023/03/19 07:53:53;;;;;;;;;;;;;;;18.66;38.58;100576.94;4926575;28;128370;-65
2023/03/19 07:56:19;;;;;;;;;;;;;;;18.85;38.77;100569.28;4923872;28;121907;-64
2023/03/19 07:58:45;;;;;;;;;;;;;;;19.10;38.58;100573.16;4929122;28;98446;-63
2023/03/19 08:01:11;;;;;;;;;;;;;;;19.64;38.00;100577.47;4922220;28;126971;-66
2023/03/19 08:03:38;;;;;;;;;;;;;;;20.21;37.83;100572.44;4925828;28;125900;-64
2023/03/19 08:06:04;;;;;;;;;;;;;;;20.70;37.36;100578.28;4929770;28;98275;-64
2023/03/19 08:08:30;;;;;;;;;;;;;;;21.00;37.29;100580.97;4924664;28;120894;-64
2023/03/19 08:10:56;;;;;;;;;;;;;;;20.95;37.59;100579.25;4049669;28;10001016;-64
2023/03/19 08:13:22;;;;;;;;;;;;;;;21.17;37.63;100582.78;4918615;28;98260;-64
2023/03/19 08:15:52;;;;;;;;;;;;;;;21.17;37.79;100585.50;4907370;28;97947;-63
2023/03/19 08:18:18;;;;;;;;;;;;;;;21.43;37.77;100582.56;4928154;28;98097;-63
2023/03/19 08:20:45;;;;;;;;;;;;;;;21.71;37.60;100582.75;4919572;28;99216;-64
2023/03/19 08:23:12;;;;;;;;;;;;;;;22.12;37.49;100580.97;4049470;28;10000219;-65
2023/03/19 08:25:37;;;;;;;;;;;;;;;22.65;36.94;100570.94;4912489;28;98306;-67
2023/03/19 08:28:04;;;;;;;;;;;;;;;23.14;36.82;100571.59;4941674;28;101179;-66
2023/03/19 08:30:30;;;;;;;;;;;;;;;23.66;36.51;100573.47;4949115;27;99384;-64
2023/03/19 08:32:56;;;;;;;;;;;;;;;24.00;36.15;100571.16;4948506;28;99680;-66
2023/03/19 08:35:22;;;;;;;;;;;;;;;24.38;36.37;100566.97;4947290;27;107795;-64
2023/03/19 08:37:48;;;;;;;;;;;;;;;24.58;36.18;100565.09;4950309;28;98333;-67
2023/03/19 08:40:14;;;;;;;;;;;;;;;24.49;36.47;100571.59;4062179;27;10000842;-67
2023/03/19 08:42:41;;;;;;;;;;;;;;;24.65;36.79;100568.00;4950688;28;98844;-66
2023/03/19 08:45:10;;;;;;;;;;;;;;;24.73;36.86;100570.56;4948690;28;98440;-67
2023/03/19 08:47:36;;;;;;;;;;;;;;;24.87;36.87;100560.97;4948765;28;98553;-64
2023/03/19 08:50:02;;;;;;;;;;;;;;;25.18;36.38;100562.81;4945380;28;116254;-67
2023/03/19 08:52:28;;;;;;;;;;;;;;;25.50;36.23;100562.66;4923349;28;110289;-66
2023/03/19 08:54:54;;;;;;;;;;;;;;;25.69;36.39;100566.16;4948236;28;98110;-64
2023/03/19 08:57:20;;;;;;;;;;;;;;;25.71;36.46;100566.59;4949104;28;128278;-67
2023/03/19 08:59:46;;;;;;;;;;;;;;;25.76;36.68;100565.50;4949016;28;98188;-65
2023/03/19 09:02:12;;;;;;;;;;;;;;;25.90;36.73;100571.28;4950095;28;98761;-67
2023/03/19 09:04:42;;;;;;;;;;;;;;;26.08;36.66;100563.28;4930026;28;128347;-68
2023/03/19 09:07:11;;;;;;;;;;;;;;;26.25;36.74;100569.47;4916585;28;121782;-65
2023/03/19 09:09:38;;;;;;;;;;;;;;;26.33;36.94;100558.19;4946343;28;97965;-65
2023/03/19 09:12:04;;;;;;;;;;;;;;;26.43;36.95;100565.81;4946197;28;123144;-67
2023/03/19 09:14:30;;;;;;;;;;;;;;;26.54;36.86;100567.97;4948500;28;98074;-67
2023/03/19 09:16:56;;;;;;;;;;;;;;;26.57;37.15;100558.94;4950370;28;126846;-67
2023/03/19 09:19:22;;;;;;;;;;;;;;;26.59;37.14;100567.63;4947228;28;123300;-65
2023/03/19 09:21:49;;;;;;;;;;;;;;;26.66;37.24;100568.53;4930528;28;107897;-67
2023/03/19 09:24:15;;;;;;;;;;;;;;;26.81;37.06;100566.75;4946982;28;99287;-65
2023/03/19 09:26:41;;;;;;;;;;;;;;;27.00;37.21;100573.28;4951121;28;98277;-66
2023/03/19 09:29:07;;;;;;;;;;;;;;;27.17;37.01;100573.56;4950583;28;98158;-66
2023/03/19 09:31:32;;;;;;;;;;;;;;;27.40;36.78;100578.16;4948623;28;128067;-66
2023/03/19 09:33:59;;;;;;;;;;;;;;;27.57;36.73;100572.00;4948734;28;127009;-67
2023/03/19 09:36:25;;;;;;;;;;;;;;;27.68;36.91;100571.31;4949773;27;98828;-65
2023/03/19 09:38:51;;;;;;;;;;;;;;;27.72;37.04;100570.19;4931756;28;98245;-65
2023/03/19 09:41:58;;;;;;;;;;;;;;;27.73;37.27;100580.06;4950522;28;128022;-66
2023/03/19 09:44:29;;;;;;;;;;;;;;;27.86;37.20;100570.34;4934264;28;98687;-66
2023/03/19 09:47:02;;;;;;;;;;;;;;;27.92;37.18;100570.00;4948465;27;98769;-67
2023/03/19 09:49:31;;;;;;;;;;;;;;;28.09;37.17;100570.13;4950554;28;97977;-66
2023/03/19 09:52:55;;;;;;;;;;;;;;;28.28;37.06;100571.84;4928823;28;98497;-66
2023/03/19 09:55:31;;;;;;;;;;;;;;;28.32;37.25;100564.34;4889490;28;98822;-65
2023/03/19 09:57:57;;;;;;;;;;;;;;;28.43;36.81;100570.00;4893869;28;98532;-65
2023/03/19 10:00:27;;;;;;;;;;;;;;;28.58;37.16;100571.69;4926676;28;98154;-67
2023/03/19 10:03:17;;;;;;;;;;;;;;;28.62;37.19;100563.38;4929688;28;116321;-66
2023/03/19 10:06:11;;;;;;;;;;;;;;;29.00;36.61;100564.75;4948760;28;99018;-66
2023/03/19 10:08:58;;;;;;;;;;;;;;;29.00;36.75;100559.22;4941088;28;100442;-65
2023/03/19 10:11:56;;;;;;;;;;;;;;;29.35;36.79;100557.75;4947781;28;99263;-67
2023/03/19 10:14:49;;;;;;;;;;;;;;;29.57;36.42;100561.41;4929762;28;100367;-65
2023/03/19 10:17:20;;;;;;;;;;;;;;;29.82;36.60;100562.19;4946168;28;98889;-65
2023/03/19 10:19:50;;;;;;;;;;;;;;;30.18;36.46;100566.97;4931652;28;98528;-66
2023/03/19 10:22:18;;;;;;;;;;;;;;;30.36;36.41;100562.19;4947731;28;98644;-64
2023/03/19 10:24:45;;;;;;;;;;;;;;;30.70;36.03;100559.75;4929680;28;122531;-67
2023/03/19 10:27:18;;;;;;;;;;;;;;;30.76;36.19;100562.91;4946090;28;125242;-65
2023/03/19 10:29:44;;;;;;;;;;;;;;;30.97;36.27;100559.25;4934232;28;106590;-68
2023/03/19 10:32:17;;;;;;;;;;;;;;;30.93;36.27;100561.25;4945730;28;98047;-65
2023/03/19 10:34:47;;;;;;;;;;;;;;;30.85;36.65;100556.91;4948436;28;99106;-66
2023/03/19 10:37:25;;;;;;;;;;;;;;;30.69;36.82;100557.34;4946141;28;98351;-65
2023/03/19 10:39:55;;;;;;;;;;;;;;;30.60;36.95;100555.00;4947924;28;99348;-66
2023/03/19 10:42:42;;;;;;;;;;;;;;;30.49;37.03;100555.00;4948760;27;99786;-65
2023/03/19 10:45:27;;;;;;;;;;;;;;;30.28;37.36;100552.28;4944188;28;98374;-67
2023/03/19 10:47:54;;;;;;;;;;;;;;;30.12;37.17;100560.22;4931610;28;98125;-65
2023/03/19 10:50:26;;;;;;;;;;;;;;;29.98;37.21;100552.69;4929193;28;98599;-65
2023/03/19 10:52:59;;;;;;;;;;;;;;;29.80;37.25;100552.69;4947589;28;117118;-66
2023/03/19 10:55:28;;;;;;;;;;;;;;;29.69;37.63;100540.78;4945662;28;100058;-65
2023/03/19 10:58:01;;;;;;;;;;;;;;;29.58;37.71;100547.09;4947925;28;108022;-65
2023/03/19 11:00:31;;;;;;;;;;;;;;;29.44;37.55;100549.84;4948040;28;98466;-65
2023/03/19 11:02:58;;;;;;;;;;;;;;;29.26;37.73;100549.00;4949472;28;99662;-68
2023/03/19 11:05:27;;;;;;;;;;;;;;;29.14;37.88;100550.16;4946277;28;99259;-67
2023/03/19 11:08:04;;;;;;;;;;;;;;;29.07;37.58;100550.13;4934996;28;98682;-68
2023/03/19 11:10:34;;;;;;;;;;;;;;;29.05;37.74;100546.97;4930617;28;98197;-65
2023/03/19 11:13:11;;;;;;;;;;;;;;;29.11;37.73;100545.38;4933696;28;118442;-65
2023/03/19 11:15:37;;;;;;;;;;;;;;;29.15;37.77;100553.72;4932113;28;115720;-65
2023/03/19 11:18:19;;;;;;;;;;;;;;;29.17;37.84;100556.91;4928230;28;98836;-65
2023/03/19 11:20:49;;;;;;;;;;;;;;;29.17;37.79;100552.16;4946512;28;98251;-67
2023/03/19 11:23:16;;;;;;;;;;;;;;;29.06;37.46;100548.56;4935040;28;98116;-66
2023/03/19 11:25:52;;;;;;;;;;;;;;;29.05;37.93;100550.53;4947851;28;98441;-65
2023/03/19 11:28:21;;;;;;;;;;;;;;;29.15;37.69;100548.97;4948574;28;109247;-67
2023/03/19 11:31:11;;;;;;;;;;;;;;;29.35;37.46;100546.63;4949349;28;98006;-65
2023/03/19 11:33:51;;;;;;;;;;;;;;;29.65;37.01;100542.75;4931569;28;98718;-65
2023/03/19 11:36:51;;;;;;;;;;;;;;;29.93;36.98;100534.44;4946992;28;98466;-65
2023/03/19 11:39:19;;;;;;;;;;;;;;;30.24;36.78;100535.63;4932271;28;105875;-65
2023/03/19 11:41:45;;;;;;;;;;;;;;;30.39;36.70;100536.38;4952977;28;99050;-65
2023/03/19 11:44:48;;;;;;;;;;;;;;;30.60;36.53;100531.97;4945685;28;99178;-66
2023/03/19 11:47:46;;;;;;;;;;;;;;;30.65;36.80;100531.53;4930999;28;126889;-65
2023/03/19 11:50:24;;;;;;;;;;;;;;;30.56;36.89;100526.41;4946425;28;98468;-65
2023/03/19 11:53:00;;;;;;;;;;;;;;;30.59;37.05;100510.91;4947081;28;98144;-65
2023/03/19 11:55:51;;;;;;;;;;;;;;;30.70;36.84;100520.00;4935158;28;98001;-65
2023/03/19 11:58:25;;;;;;;;;;;;;;;30.70;36.88;100515.25;4933341;28;99399;-65
2023/03/19 12:00:52;;;;;;;;;;;;;;;30.67;37.09;100509.69;4950472;28;106837;-65
2023/03/19 12:03:59;;;;;;;;;;;;;;;30.63;37.14;100506.91;4932138;28;98800;-66
2023/03/19 12:06:55;;;;;;;;;;;;;;;30.52;37.07;100506.16;4933298;28;98378;-65
2023/03/19 12:09:59;;;;;;;;;;;;;;;30.49;37.27;100507.75;4932752;28;98489;-66
2023/03/19 12:12:33;;;;;;;;;;;;;;;30.44;37.14;100515.72;4931617;28;99008;-65
2023/03/19 12:15:20;;;;;;;;;;;;;;;30.32;37.57;100512.19;4947956;28;122502;-67
2023/03/19 12:17:58;;;;;;;;;;;;;;;30.22;37.52;100515.78;4947044;28;98639;-65
2023/03/19 12:20:31;;;;;;;;;;;;;;;30.16;37.65;100506.25;4934419;28;99061;-66
2023/03/19 12:23:05;;;;;;;;;;;;;;;30.20;37.51;100495.13;4933995;28;98236;-64
2023/03/19 12:25:40;;;;;;;;;;;;;;;30.29;37.29;100498.28;4954039;28;99705;-64
2023/03/19 12:28:27;;;;;;;;;;;;;;;30.26;37.26;100511.00;4947627;28;98250;-67
2023/03/19 12:31:26;;;;;;;;;;;;;;;30.19;37.56;100504.69;4939090;28;127983;-64
2023/03/19 12:34:08;;;;;;;;;;;;;;;30.04;37.58;100504.66;4933337;28;98784;-65
2023/03/19 12:36:59;;;;;;;;;;;;;;;29.92;37.67;100502.28;4950901;28;121495;-67
2023/03/19 12:39:33;;;;;;;;;;;;;;;29.84;37.72;100498.72;4934105;28;116186;-64
2023/03/19 12:41:59;;;;;;;;;;;;;;;29.77;37.82;100498.72;4930514;28;121742;-67